createdAt,value
2019-03-05T00:01:49.087Z,6.00
2019-03-05T00:04:20.068Z,6.03
2019-03-05T00:06:49.695Z,6.00
2019-03-05T00:09:19.753Z,6.27
2019-03-05T00:11:48.415Z,6.30
2019-03-05T00:14:18.835Z,5.67
2019-03-05T00:16:47.722Z,6.63
2019-03-05T00:19:21.330Z,6.27
2019-03-05T00:21:50.017Z,6.30
2019-03-05T00:24:58.099Z,6.73
2019-03-05T00:27:29.732Z,6.63
2019-03-05T00:30:30.032Z,7.00
2019-03-05T00:33:08.745Z,7.07
2019-03-05T00:35:52.017Z,7.27
2019-03-05T00:38:24.839Z,7.00
2019-03-05T00:41:05.376Z,7.53
2019-03-05T00:43:54.063Z,6.97
2019-03-05T00:46:43.368Z,7.00
2019-03-05T00:49:15.725Z,6.90
2019-03-05T00:51:49.645Z,6.37
2019-03-05T00:54:44.637Z,6.90
2019-03-05T00:57:24.896Z,6.40
2019-03-05T01:00:16.417Z,6.10
2019-03-05T01:03:02.568Z,5.40
2019-03-05T01:06:02.190Z,5.03
2019-03-05T01:08:28.913Z,4.77
2019-03-05T01:11:02.991Z,4.40
2019-03-05T01:13:31.574Z,3.53
2019-03-05T01:16:05.328Z,4.27
2019-03-05T01:18:35.443Z,3.30
2019-03-05T01:21:06.069Z,3.00
2019-03-05T01:23:39.064Z,2.90
2019-03-05T01:26:09.178Z,3.00
2019-03-05T01:28:37.677Z,2.50
2019-03-05T01:31:22.745Z,2.33
2019-03-05T01:33:55.600Z,2.70
2019-03-05T01:36:40.636Z,2.83
2019-03-05T01:39:29.705Z,3.93
2019-03-05T01:42:01.189Z,3.83
2019-03-05T01:44:40.034Z,4.00
2019-03-05T01:47:08.128Z,4.47
2019-03-05T01:49:42.705Z,3.87
2019-03-05T01:52:11.120Z,4.20
2019-03-05T01:54:42.469Z,4.33
2019-03-05T01:57:16.352Z,4.60
2019-03-05T01:59:47.233Z,4.27
2019-03-05T02:02:21.537Z,4.87
2019-03-05T02:04:53.081Z,3.60
2019-03-05T02:07:23.132Z,4.03
2019-03-05T02:09:54.506Z,4.47
2019-03-05T02:12:27.383Z,4.20
2019-03-05T02:14:58.446Z,4.40
2019-03-05T02:17:31.066Z,4.20
2019-03-05T02:20:01.124Z,3.80
2019-03-05T02:22:32.474Z,2.97
2019-03-05T02:25:22.161Z,2.37
2019-03-05T02:28:17.598Z,1.97
2019-03-05T02:31:07.249Z,2.20
2019-03-05T02:33:41.702Z,2.00
2019-03-05T02:36:23.801Z,1.97
2019-03-05T02:39:19.554Z,1.90
2019-03-05T02:42:09.148Z,2.17
2019-03-05T02:45:14.064Z,1.73
2019-03-05T02:47:48.024Z,1.40
2019-03-05T02:50:30.197Z,1.30
2019-03-05T02:53:21.250Z,1.20
2019-03-05T02:56:24.342Z,1.50
2019-03-05T02:58:58.370Z,1.57
2019-03-05T03:01:47.093Z,1.60
2019-03-05T03:04:23.064Z,2.90
2019-03-05T03:07:00.282Z,3.70
2019-03-05T03:09:33.413Z,3.93
2019-03-05T03:12:02.617Z,4.30
2019-03-05T03:14:44.905Z,4.93
2019-03-05T03:17:21.177Z,4.93
2019-03-05T03:19:52.489Z,5.03
2019-03-05T03:22:20.925Z,4.93
2019-03-05T03:24:55.122Z,4.63
2019-03-05T03:27:29.442Z,4.70
2019-03-05T03:30:00.810Z,4.67
2019-03-05T03:32:32.432Z,4.97
2019-03-05T03:35:10.453Z,4.93
2019-03-05T03:37:46.996Z,4.47
2019-03-05T03:40:24.496Z,4.10
2019-03-05T03:42:55.637Z,4.60
2019-03-05T03:45:27.011Z,4.53
2019-03-05T03:47:55.612Z,4.70
2019-03-05T03:50:29.782Z,4.30
2019-03-05T03:53:00.894Z,4.27
2019-03-05T03:55:35.206Z,3.13
2019-03-05T03:58:06.092Z,3.00
2019-03-05T04:00:37.675Z,3.10
2019-03-05T04:03:15.996Z,4.00
2019-03-05T04:05:51.992Z,3.30
2019-03-05T04:08:24.551Z,3.40
2019-03-05T04:10:58.766Z,3.60
2019-03-05T04:13:27.526Z,3.73
2019-03-05T04:16:03.939Z,3.73
2019-03-05T04:18:32.841Z,3.87
2019-03-05T04:21:02.885Z,3.43
2019-03-05T04:23:33.999Z,3.90
2019-03-05T04:26:08.459Z,4.00
2019-03-05T04:28:46.052Z,4.00
2019-03-05T04:31:18.841Z,3.80
2019-03-05T04:33:44.605Z,4.13
2019-03-05T04:36:18.902Z,3.90
2019-03-05T04:39:01.725Z,3.67
2019-03-05T04:41:33.062Z,3.60
2019-03-05T04:44:04.211Z,3.23
2019-03-05T04:46:36.231Z,3.70
2019-03-05T04:49:22.745Z,3.37
2019-03-05T04:51:55.745Z,3.30
2019-03-05T04:54:27.196Z,3.40
2019-03-05T04:57:04.316Z,3.57
2019-03-05T04:59:48.565Z,2.83
2019-03-05T05:02:23.929Z,3.50
2019-03-05T05:04:52.328Z,3.00
2019-03-05T05:07:23.714Z,3.07
2019-03-05T05:09:52.167Z,2.90
2019-03-05T05:12:23.141Z,3.80
2019-03-05T05:14:54.732Z,4.10
2019-03-05T05:17:23.208Z,3.67
2019-03-05T05:19:54.407Z,3.40
2019-03-05T05:22:28.208Z,2.73
2019-03-05T05:24:58.445Z,3.00
2019-03-05T05:27:31.450Z,2.77
2019-03-05T05:30:09.845Z,3.20
2019-03-05T05:32:41.176Z,2.57
2019-03-05T05:35:09.597Z,2.90
2019-03-05T05:37:46.725Z,2.90
2019-03-05T05:40:27.669Z,2.80
2019-03-05T05:42:59.014Z,2.60
2019-03-05T05:45:36.508Z,2.57
2019-03-05T05:48:04.930Z,3.17
2019-03-05T05:50:33.368Z,3.07
2019-03-05T05:53:01.772Z,2.93
2019-03-05T05:55:33.520Z,2.77
2019-03-05T05:58:03.633Z,2.87
2019-03-05T06:00:36.515Z,2.97
2019-03-05T06:03:06.545Z,3.07
2019-03-05T06:05:35.988Z,2.60
2019-03-05T06:08:04.582Z,3.13
2019-03-05T06:10:33.249Z,2.80
2019-03-05T06:13:04.665Z,3.20
2019-03-05T06:15:36.420Z,2.63
2019-03-05T06:18:07.073Z,2.73
2019-03-05T06:20:42.624Z,2.33
2019-03-05T06:23:11.377Z,3.10
2019-03-05T06:25:48.800Z,2.97
2019-03-05T06:28:19.875Z,2.70
2019-03-05T06:30:50.256Z,2.40
2019-03-05T06:33:21.527Z,2.53
2019-03-05T06:35:53.254Z,2.20
2019-03-05T06:38:24.595Z,2.30
2019-03-05T06:40:58.915Z,2.30
2019-03-05T06:43:30.198Z,2.60
2019-03-05T06:45:58.608Z,2.30
2019-03-05T06:48:27.802Z,2.07
2019-03-05T06:50:59.028Z,2.23
2019-03-05T06:53:30.408Z,2.00
2019-03-05T06:56:01.738Z,2.80
2019-03-05T06:58:33.825Z,2.20
2019-03-05T07:01:05.378Z,2.43
2019-03-05T07:03:39.514Z,2.73
2019-03-05T07:06:37.065Z,2.53
2019-03-05T07:09:30.128Z,2.20
2019-03-05T07:12:04.357Z,2.17
2019-03-05T07:14:47.617Z,2.73
2019-03-05T07:17:37.289Z,1.97
2019-03-05T07:20:34.822Z,2.07
2019-03-05T07:23:43.215Z,1.87
2019-03-05T07:26:11.700Z,2.00
2019-03-05T07:28:41.816Z,1.90
2019-03-05T07:31:13.123Z,1.87
2019-03-05T07:33:48.329Z,1.93
2019-03-05T07:36:16.733Z,1.80
2019-03-05T07:38:45.643Z,1.80
2019-03-05T07:41:16.990Z,2.03
2019-03-05T07:43:53.411Z,2.03
2019-03-05T07:46:21.371Z,2.07
2019-03-05T07:48:50.416Z,2.10
2019-03-05T07:51:18.826Z,2.70
2019-03-05T07:53:53.225Z,2.17
2019-03-05T07:56:24.841Z,2.80
2019-03-05T07:58:56.161Z,2.00
2019-03-05T08:01:27.223Z,2.10
2019-03-05T08:03:58.837Z,2.07
2019-03-05T08:06:43.309Z,2.23
2019-03-05T08:09:31.181Z,2.03
2019-03-05T08:12:22.528Z,2.20
2019-03-05T08:14:57.223Z,2.07
2019-03-05T08:17:28.681Z,2.30
2019-03-05T08:20:12.418Z,2.10
2019-03-05T08:22:41.393Z,2.07
2019-03-05T08:25:14.616Z,1.97
2019-03-05T08:27:45.586Z,1.83
2019-03-05T08:30:18.798Z,2.27
2019-03-05T08:32:48.850Z,3.00
2019-03-05T08:35:25.958Z,3.20
2019-03-05T08:37:56.009Z,2.10
2019-03-05T08:40:27.209Z,3.13
2019-03-05T08:42:55.625Z,2.40
2019-03-05T08:45:29.680Z,3.30
2019-03-05T08:47:56.123Z,2.40
2019-03-05T08:50:31.879Z,1.93
2019-03-05T08:52:57.637Z,1.90
2019-03-05T08:55:29.025Z,2.00
2019-03-05T08:57:58.474Z,1.90
2019-03-05T09:00:29.906Z,1.87
2019-03-05T09:03:01.006Z,2.00
2019-03-05T09:05:36.569Z,1.90
2019-03-05T09:08:05.242Z,1.93
2019-03-05T09:10:35.297Z,1.60
2019-03-05T09:13:08.085Z,1.90
2019-03-05T09:15:36.512Z,1.90
2019-03-05T09:18:12.392Z,1.80
2019-03-05T09:20:44.288Z,1.83
2019-03-05T09:23:12.712Z,1.80
2019-03-05T09:25:43.925Z,1.80
2019-03-05T09:28:15.045Z,1.90
2019-03-05T09:30:45.106Z,1.60
2019-03-05T09:33:19.461Z,2.23
2019-03-05T09:35:48.041Z,1.70
2019-03-05T09:38:16.512Z,1.83
2019-03-05T09:40:51.320Z,1.63
2019-03-05T09:43:19.718Z,1.77
2019-03-05T09:45:54.768Z,1.83
2019-03-05T09:48:26.353Z,2.07
2019-03-05T09:50:57.643Z,1.80
2019-03-05T09:53:26.117Z,2.10
2019-03-05T09:55:58.548Z,1.93
2019-03-05T09:58:26.958Z,1.83
2019-03-05T10:00:58.306Z,1.70
2019-03-05T10:03:32.653Z,1.70
2019-03-05T10:06:07.489Z,1.70
2019-03-05T10:08:43.178Z,2.07
2019-03-05T10:11:15.330Z,1.70
2019-03-05T10:13:44.014Z,1.70
2019-03-05T10:16:12.417Z,1.60
2019-03-05T10:18:46.425Z,1.73
2019-03-05T10:21:17.530Z,1.77
2019-03-05T10:23:49.717Z,1.77
2019-03-05T10:26:21.154Z,1.90
2019-03-05T10:28:49.573Z,2.23
2019-03-05T10:31:20.730Z,10.33
2019-03-05T10:33:54.908Z,2.27
2019-03-05T10:36:32.246Z,2.77
2019-03-05T10:39:06.795Z,1.97
2019-03-05T10:41:37.766Z,2.03
2019-03-05T10:44:07.820Z,2.20
2019-03-05T10:46:39.150Z,2.40
2019-03-05T10:49:11.989Z,2.10
2019-03-05T10:51:46.306Z,2.60
2019-03-05T10:54:16.353Z,2.13
2019-03-05T10:56:49.090Z,2.40
2019-03-05T10:59:17.872Z,2.13
2019-03-05T11:01:48.233Z,2.10
2019-03-05T11:04:17.436Z,2.00
2019-03-05T11:06:52.669Z,1.90
2019-03-05T11:09:21.578Z,2.10
2019-03-05T11:11:55.867Z,2.10
2019-03-05T11:14:26.898Z,2.27
2019-03-05T11:16:57.710Z,1.40
2019-03-05T11:19:28.074Z,1.80
2019-03-05T11:22:02.208Z,1.60
2019-03-05T11:24:30.631Z,1.80
2019-03-05T11:26:59.409Z,1.90
2019-03-05T11:29:36.545Z,1.80
2019-03-05T11:32:13.902Z,1.90
2019-03-05T11:34:45.041Z,2.27
2019-03-05T11:37:16.618Z,2.00
2019-03-05T11:39:46.673Z,1.73
2019-03-05T11:42:15.094Z,7.27
2019-03-05T11:45:06.746Z,4.57
2019-03-05T11:47:22.869Z,7.30
2019-03-05T11:49:51.315Z,1.63
2019-03-05T11:52:22.902Z,2.40
2019-03-05T11:54:53.222Z,1.90
2019-03-05T11:57:31.378Z,2.00
2019-03-05T12:00:01.446Z,2.43
2019-03-05T12:02:33.081Z,2.07
2019-03-05T12:05:17.457Z,2.00
2019-03-05T12:07:51.503Z,1.73
2019-03-05T12:10:30.106Z,1.70
2019-03-05T12:12:58.521Z,2.57
2019-03-05T12:15:33.062Z,1.90
2019-03-05T12:18:01.574Z,2.70
2019-03-05T12:20:29.977Z,2.30
2019-03-05T12:23:02.313Z,15.37
2019-03-05T12:25:31.080Z,4.23
2019-03-05T12:28:10.171Z,2.07
2019-03-05T12:30:46.251Z,1.80
2019-03-05T12:33:19.122Z,10.73
2019-03-05T12:35:50.337Z,5.53
2019-03-05T12:38:21.508Z,15.93
2019-03-05T12:40:52.845Z,2.53
2019-03-05T12:43:24.638Z,2.17
2019-03-05T12:45:55.700Z,4.50
2019-03-05T12:48:26.813Z,3.60
2019-03-05T12:50:58.077Z,2.50
2019-03-05T12:53:35.353Z,1.73
2019-03-05T12:56:05.499Z,3.13
2019-03-05T12:58:39.557Z,2.43
2019-03-05T13:01:12.878Z,2.00
2019-03-05T13:03:41.303Z,2.37
2019-03-05T13:06:14.082Z,1.60
2019-03-05T13:08:42.541Z,2.73
2019-03-05T13:11:14.494Z,1.80
2019-03-05T13:13:47.612Z,3.67
2019-03-05T13:16:28.092Z,4.73
2019-03-05T13:18:59.187Z,2.13
2019-03-05T13:21:30.329Z,1.90
2019-03-05T13:24:00.368Z,2.50
2019-03-05T13:26:28.793Z,1.93
2019-03-05T13:28:57.197Z,5.40
2019-03-05T13:31:28.287Z,1.90
2019-03-05T13:33:59.631Z,2.60
2019-03-05T13:36:28.051Z,2.20
2019-03-05T13:38:56.722Z,1.60
2019-03-05T13:41:26.801Z,1.87
2019-03-05T13:43:55.494Z,1.70
2019-03-05T13:46:25.866Z,1.50
2019-03-05T13:49:09.785Z,2.27
2019-03-05T13:51:59.697Z,1.40
2019-03-05T13:54:48.598Z,1.83
2019-03-05T13:57:43.590Z,1.80
2019-03-05T14:00:13.266Z,1.20
2019-03-05T14:03:01.787Z,1.70
2019-03-05T14:05:38.842Z,1.83
2019-03-05T14:08:12.943Z,1.40
2019-03-05T14:10:43.054Z,1.40
2019-03-05T14:13:11.471Z,1.20
2019-03-05T14:15:43.888Z,1.53
2019-03-05T14:18:14.031Z,1.70
2019-03-05T14:20:45.623Z,1.50
2019-03-05T14:23:14.042Z,1.20
2019-03-05T14:25:42.454Z,1.80
2019-03-05T14:28:11.643Z,1.97
2019-03-05T14:30:44.290Z,1.73
2019-03-05T14:33:17.111Z,2.40
2019-03-05T14:35:47.658Z,6.30
2019-03-05T14:38:17.221Z,14.07
2019-03-05T14:40:48.265Z,3.00
2019-03-05T14:43:16.682Z,8.47
2019-03-05T14:45:48.210Z,2.70
2019-03-05T14:48:22.377Z,2.10
2019-03-05T14:51:08.212Z,3.57
2019-03-05T14:53:36.729Z,2.30
2019-03-05T14:56:06.864Z,24.13
2019-03-05T14:58:40.222Z,2.30
2019-03-05T15:01:16.458Z,2.40
2019-03-05T15:03:49.468Z,2.13
2019-03-05T15:06:23.543Z,4.80
2019-03-05T15:08:54.960Z,3.07
2019-03-05T15:11:27.481Z,3.40
2019-03-05T15:13:56.227Z,2.20
2019-03-05T15:16:24.712Z,1.50
2019-03-05T15:18:53.226Z,3.43
2019-03-05T15:21:24.230Z,1.93
2019-03-05T15:23:54.264Z,2.70
2019-03-05T15:26:22.704Z,1.63
2019-03-05T15:28:56.568Z,1.60
2019-03-05T15:31:24.195Z,1.70
2019-03-05T15:33:55.278Z,1.20
2019-03-05T15:36:24.687Z,1.50
2019-03-05T15:39:13.062Z,2.30
2019-03-05T15:41:46.019Z,3.60
2019-03-05T15:44:13.343Z,9.53
2019-03-05T15:46:42.294Z,13.37
2019-03-05T15:49:19.411Z,10.50
2019-03-05T15:51:47.897Z,2.63
2019-03-05T15:54:21.110Z,7.97
2019-03-05T15:56:50.505Z,3.70
2019-03-05T15:59:18.979Z,2.27
2019-03-05T16:01:52.080Z,2.03
2019-03-05T16:04:20.509Z,1.33
2019-03-05T16:06:50.024Z,3.17
2019-03-05T16:09:24.018Z,4.20
2019-03-05T16:11:59.318Z,4.23
2019-03-05T16:14:29.619Z,1.97
2019-03-05T16:16:58.456Z,3.83
2019-03-05T16:19:31.432Z,3.87
2019-03-05T16:22:03.886Z,4.23
2019-03-05T16:24:38.943Z,4.93
2019-03-05T16:27:07.424Z,3.10
2019-03-05T16:29:35.829Z,2.00
2019-03-05T16:32:05.898Z,4.83
2019-03-05T16:34:53.592Z,2.00
2019-03-05T16:37:42.688Z,3.00
2019-03-05T16:40:30.365Z,2.20
2019-03-05T16:43:06.186Z,2.13
2019-03-05T16:45:52.340Z,2.10
2019-03-05T16:48:22.725Z,2.00
2019-03-05T16:50:52.776Z,2.00
2019-03-05T16:53:30.034Z,2.67
2019-03-05T16:56:09.605Z,2.20
2019-03-05T16:59:01.433Z,2.33
2019-03-05T17:01:48.992Z,2.33
2019-03-05T17:04:22.626Z,2.33
2019-03-05T17:07:01.989Z,2.40
2019-03-05T17:09:40.916Z,2.40
2019-03-05T17:12:09.329Z,2.57
2019-03-05T17:14:37.745Z,2.80
2019-03-05T17:17:09.169Z,2.47
2019-03-05T17:19:40.341Z,2.40
2019-03-05T17:22:16.189Z,2.43
2019-03-05T17:24:50.423Z,3.17
2019-03-05T17:27:20.406Z,2.40
2019-03-05T17:29:50.473Z,3.37
2019-03-05T17:32:20.153Z,3.10
2019-03-05T17:34:55.223Z,3.50
2019-03-05T17:37:30.100Z,3.23
2019-03-05T17:39:59.186Z,3.30
2019-03-05T17:42:29.233Z,3.53
2019-03-05T17:45:03.432Z,4.60
2019-03-05T17:47:51.805Z,4.53
2019-03-05T17:50:23.357Z,7.70
2019-03-05T17:52:51.787Z,7.60
2019-03-05T17:55:27.366Z,19.77
2019-03-05T17:58:02.316Z,5.47
2019-03-05T18:00:41.348Z,4.80
2019-03-05T18:03:13.086Z,6.43
2019-03-05T18:05:50.501Z,4.87
2019-03-05T18:08:21.609Z,4.43
2019-03-05T18:10:50.221Z,4.70
2019-03-05T18:13:19.698Z,4.97
2019-03-05T18:15:51.312Z,4.97
2019-03-05T18:18:23.748Z,4.73
2019-03-05T18:20:52.181Z,5.20
2019-03-05T18:23:22.320Z,5.60
2019-03-05T18:25:52.586Z,5.20
2019-03-05T18:28:23.392Z,6.03
2019-03-05T18:31:02.201Z,4.70
2019-03-05T18:33:33.378Z,5.13
2019-03-05T18:36:01.797Z,4.87
2019-03-05T18:38:30.244Z,5.07
2019-03-05T18:40:58.949Z,4.73
2019-03-05T18:43:36.435Z,4.73
2019-03-05T18:46:05.862Z,4.50
2019-03-05T18:48:41.823Z,4.97
2019-03-05T18:51:10.247Z,4.77
2019-03-05T18:53:41.718Z,5.37
2019-03-05T18:56:11.486Z,5.73
2019-03-05T18:58:40.073Z,5.17
2019-03-05T19:01:14.353Z,6.23
2019-03-05T19:03:45.409Z,6.10
2019-03-05T19:06:13.929Z,5.90
2019-03-05T19:08:45.276Z,5.30
2019-03-05T19:11:16.738Z,5.23
2019-03-05T19:13:49.445Z,5.50
2019-03-05T19:16:20.892Z,5.57
2019-03-05T19:18:50.928Z,7.80
2019-03-05T19:21:27.024Z,6.90
2019-03-05T19:23:58.171Z,6.30
2019-03-05T19:26:28.184Z,6.20
2019-03-05T19:29:01.217Z,6.37
2019-03-05T19:31:33.217Z,5.83
2019-03-05T19:34:05.715Z,6.23
2019-03-05T19:36:37.409Z,6.77
2019-03-05T19:39:09.732Z,6.70
2019-03-05T19:41:38.730Z,6.87
2019-03-05T19:44:13.182Z,6.37
2019-03-05T19:46:44.316Z,5.70
2019-03-05T19:49:14.819Z,6.03
2019-03-05T19:51:44.936Z,5.83
2019-03-05T19:54:13.354Z,5.70
2019-03-05T19:56:49.161Z,6.13
2019-03-05T19:59:20.938Z,6.40
2019-03-05T20:01:49.363Z,5.77
2019-03-05T20:04:20.490Z,6.10
2019-03-05T20:06:56.573Z,5.70
2019-03-05T20:09:27.839Z,5.63
2019-03-05T20:11:57.545Z,5.77
2019-03-05T20:14:40.165Z,6.13
2019-03-05T20:17:13.953Z,6.30
2019-03-05T20:19:45.314Z,5.80
2019-03-05T20:22:17.842Z,6.13
2019-03-05T20:24:49.188Z,6.23
2019-03-05T20:27:19.246Z,6.77
2019-03-05T20:29:51.159Z,7.17
2019-03-05T20:32:21.202Z,6.70
2019-03-05T20:34:51.252Z,7.90
2019-03-05T20:37:22.288Z,7.23
2019-03-05T20:39:53.757Z,8.20
2019-03-05T20:42:23.878Z,8.10
2019-03-05T20:44:55.449Z,7.73
2019-03-05T20:47:23.868Z,8.13
2019-03-05T20:49:55.302Z,9.13
2019-03-05T20:52:23.728Z,9.10
2019-03-05T20:54:55.165Z,7.50
2019-03-05T20:57:26.573Z,8.23
2019-03-05T21:00:02.130Z,8.60
2019-03-05T21:02:33.048Z,7.60
2019-03-05T21:05:04.117Z,8.30
2019-03-05T21:07:44.212Z,8.43
2019-03-05T21:10:12.937Z,7.20
2019-03-05T21:12:44.070Z,7.53
2019-03-05T21:15:15.089Z,7.80
2019-03-05T21:17:46.612Z,7.30
2019-03-05T21:20:18.993Z,7.23
2019-03-05T21:22:50.252Z,7.90
2019-03-05T21:25:36.266Z,7.93
2019-03-05T21:28:07.428Z,7.20
2019-03-05T21:30:38.841Z,8.13
2019-03-05T21:33:08.896Z,7.43
2019-03-05T21:35:40.353Z,6.43
2019-03-05T21:38:11.479Z,6.27
2019-03-05T21:40:39.889Z,5.67
2019-03-05T21:43:14.194Z,6.67
2019-03-05T21:45:55.563Z,6.30
2019-03-05T21:48:27.114Z,6.03
2019-03-05T21:50:58.858Z,6.27
2019-03-05T21:53:33.712Z,7.47
2019-03-05T21:56:07.754Z,7.77
2019-03-05T21:58:39.191Z,7.37
2019-03-05T22:01:13.366Z,8.03
2019-03-05T22:03:47.761Z,8.40
2019-03-05T22:06:20.728Z,8.20
2019-03-05T22:08:49.149Z,9.13
2019-03-05T22:11:17.577Z,8.93
2019-03-05T22:13:48.930Z,8.83
2019-03-05T22:16:31.986Z,8.63
2019-03-05T22:19:03.100Z,8.57
2019-03-05T22:21:39.208Z,8.30
2019-03-05T22:24:16.959Z,7.93
2019-03-05T22:26:47.022Z,7.97
2019-03-05T22:29:22.532Z,8.20
2019-03-05T22:32:05.488Z,8.63
2019-03-05T22:34:36.914Z,8.47
2019-03-05T22:37:26.598Z,8.27
2019-03-05T22:39:42.598Z,7.63
2019-03-05T22:42:17.071Z,7.70
2019-03-05T22:44:49.704Z,7.73
2019-03-05T22:47:20.901Z,7.97
2019-03-05T22:49:55.136Z,7.87
2019-03-05T22:52:31.477Z,8.47
2019-03-05T22:55:13.246Z,7.57
2019-03-05T22:57:50.941Z,8.03
2019-03-05T23:00:36.191Z,7.47
2019-03-05T23:03:08.576Z,8.50
2019-03-05T23:05:39.692Z,7.80
2019-03-05T23:08:15.944Z,8.07
2019-03-05T23:10:44.369Z,8.53
2019-03-05T23:13:16.106Z,8.70
2019-03-05T23:15:50.333Z,8.03
2019-03-05T23:18:25.305Z,8.20
2019-03-05T23:20:54.778Z,8.53
2019-03-05T23:23:23.190Z,8.23
2019-03-05T23:25:57.873Z,7.50
2019-03-05T23:28:28.100Z,7.83
2019-03-05T23:30:56.722Z,7.80
2019-03-05T23:33:36.927Z,7.50
2019-03-05T23:36:05.776Z,8.20
2019-03-05T23:38:36.217Z,7.57
2019-03-05T23:41:06.280Z,8.53
2019-03-05T23:43:39.240Z,8.67
2019-03-05T23:46:15.445Z,8.83
2019-03-05T23:48:47.450Z,9.50
2019-03-05T23:51:18.862Z,9.23
2019-03-05T23:53:52.566Z,9.23
2019-03-05T23:56:22.635Z,8.40
2019-03-05T23:58:54.526Z,8.90
